Aérodrome :
LOGIN :

S'inscrire | Disclaimer

   EN    FR    IT 

 










Légende :    VFR   VFR Marginal   IFR   IFR Intensif   IFR Très Intensif
Visi : 
Plafond : 
>= 8 km
>= 3000ft
5 à 8 km
1000 à 3000 ft
1500m à 5 km
500 à 1000 ft
800 à 1500m
200 à 500 ft
< 800m
< 200 ft
Symboles :   Orages  Brouillard  Fortes neiges  Fortes précipitations  Vent > 20 kt
SIGMETs :   Divers  Orages  Givrage  Turbulence  Onde Orograph.  Cendres Volcan.






- Altitude de l'aérodrome : 1090 ft
- Code IATA : CFE


LFLC - Clermont-Ferrand Auvergne

DERNIER METAR :
  • 221130Z AUTO VRB03KT 9999 OVC007 12/10 Q1021 TEMPO 3000 RA OVC003

METARs EXPIRÉS :
  • 221100Z AUTO 35005KT 320V020 8000 -DZ BKN006 OVC011 11/11 Q1021 TEMPO 3000 RA OVC003
  • 221030Z AUTO VRB03KT 9999 DZ BKN006 OVC014 11/10 Q1022 TEMPO 3000 RA OVC003
  • 221000Z AUTO VRB03KT 9999 BKN005 OVC014 11/10 Q1022 TEMPO 3000 RA
  • 220930Z AUTO 01003KT 330V040 9999 -RA BKN006 BKN015 OVC035 11/10 Q1022 TEMPO 3000 RA OVC003
  • 220900Z AUTO VRB03KT 9999 -DZ SCT006/// BKN018/// BKN036/// ///TCU 10/10 Q1022 TEMPO 3000 RA OVC003

TAF TAF LFLC
Valide du 22 à 09h jusqu'au 23 à 09h UTC


220800Z 2209/2309 35005KT 9999 BKN006 BKN040
TEMPO 2209/2219 3000 RA OVC003
BECMG 2220/2222 2000 BR OVC002
PROB40
TEMPO 2222/2304 VRB02KT 0400 FG VV///
BECMG 2304/2306 SCT006 BKN070
TEMPO 2306/2309 14005KT 3000 RA SCT003 SCT050TCU BKN060
ATIS : +33 4 73 62 74 38



MET'MAP, la Météo Aéronautique d'un coup d'oeil ! - Copyright ORBIFLY Décembre 2007 - Disclaimer

ORBIFLY MET'MAP TEAM :

Programmation & Développement : Alexandra Zaïnal
Conception & Développement : Baudouin d'Aumeries
Co-Programmation & Développement : Marc-Olivier Méhu
Soutien technique & logistique : Manuel Goepfert

Contact : metmap@orbifly.com




SOURCES & CREDITS :

   NOAA